Broadmeadows, Australia
Current Conditions -  °F | °C
As of 9:00 AM on Tuesday 27 Jan 2015 (Local Time) from YMEN Reporting Station
Overcast Overcast  
Wind Chill: 61°   Ceiling: 4900
Heat Index: 61°   Visibility: 6mi
Dew Point: 48°   Wind: 14mph
Humidity: 63%   Direction: 150°SSE
Pressure: 30.03"   Gusts: NA
Location:  37.68°S, 144.92°E
Report Text: YMEN 262200Z AUTO 15012KT 9999 // OVC049 16/09 Q1017
Loading
Personal Weather Stations






























Interactive Weather Map New forecast layout! Learn more

10-Day Weather Forecast

Advertisements
Track Severe Weather on mobile